createdAt,value
2023-01-17T00:00:43.038Z,16.17
2023-01-17T00:01:45.882Z,17.42
2023-01-17T00:02:54.892Z,16.10
2023-01-17T00:04:16.523Z,15.05
2023-01-17T00:05:37.559Z,15.18
2023-01-17T00:06:59.005Z,14.77
2023-01-17T00:08:21.793Z,15.20
2023-01-17T00:09:43.115Z,13.93
2023-01-17T00:10:46.046Z,16.27
2023-01-17T00:11:59.154Z,15.55
2023-01-17T00:13:04.789Z,15.27
2023-01-17T00:14:09.878Z,16.38
2023-01-17T00:15:12.587Z,14.52
2023-01-17T00:16:19.622Z,16.08
2023-01-17T00:17:28.979Z,16.15
2023-01-17T00:18:33.172Z,14.68
2023-01-17T00:21:26.231Z,15.85
2023-01-17T00:22:51.111Z,16.63
2023-01-17T00:24:13.695Z,16.45
2023-01-17T00:25:37.424Z,17.17
2023-01-17T00:27:01.494Z,17.02
2023-01-17T00:28:05.151Z,16.17
2023-01-17T00:29:11.665Z,17.38
2023-01-17T00:30:15.228Z,16.98
2023-01-17T00:31:18.562Z,16.88
2023-01-17T00:32:24.134Z,17.17
2023-01-17T00:33:29.262Z,16.70
2023-01-17T00:34:34.451Z,15.05
2023-01-17T00:35:37.292Z,18.08
2023-01-17T00:36:42.570Z,17.42
2023-01-17T00:37:49.610Z,17.05
2023-01-17T00:38:58.062Z,16.67
2023-01-17T00:40:00.880Z,18.08
2023-01-17T00:41:06.848Z,16.83
2023-01-17T00:42:11.382Z,16.67
2023-01-17T00:44:59.453Z,15.38
2023-01-17T00:46:24.784Z,15.80
2023-01-17T00:47:49.649Z,15.93
2023-01-17T00:49:13.918Z,16.38
2023-01-17T00:50:35.181Z,16.10
2023-01-17T00:51:57.268Z,17.33
2023-01-17T00:53:27.516Z,16.42
2023-01-17T00:54:51.462Z,15.60
2023-01-17T00:56:13.000Z,17.58
2023-01-17T00:57:34.766Z,17.30
2023-01-17T00:58:55.955Z,17.90
2023-01-17T01:00:19.696Z,17.55
2023-01-17T01:01:43.608Z,22.77
2023-01-17T01:03:05.556Z,29.73
2023-01-17T01:04:26.831Z,32.67
2023-01-17T01:05:48.250Z,31.10
2023-01-17T01:07:09.660Z,30.02
2023-01-17T01:08:42.848Z,25.63
2023-01-17T01:10:04.114Z,25.02
2023-01-17T01:11:31.819Z,22.83
2023-01-17T01:12:53.339Z,23.20
2023-01-17T01:14:15.636Z,24.48
2023-01-17T01:15:36.881Z,23.90
2023-01-17T01:16:57.914Z,30.73
2023-01-17T01:18:28.308Z,29.33
2023-01-17T01:19:49.532Z,21.95
2023-01-17T01:21:10.589Z,25.27
2023-01-17T01:22:32.019Z,22.75
2023-01-17T01:24:12.158Z,23.30
2023-01-17T01:25:33.379Z,20.25
2023-01-17T01:26:54.865Z,28.35
2023-01-17T01:28:36.572Z,29.45
2023-01-17T01:29:57.910Z,25.70
2023-01-17T01:31:20.330Z,24.73
2023-01-17T01:32:41.556Z,24.73
2023-01-17T01:33:44.404Z,21.92
2023-01-17T01:34:49.377Z,22.90
2023-01-17T01:35:54.482Z,21.38
2023-01-17T01:36:57.368Z,22.30
2023-01-17T01:38:02.055Z,20.55
2023-01-17T01:39:04.734Z,21.90
2023-01-17T01:41:25.852Z,18.30
2023-01-17T01:42:28.792Z,17.40
2023-01-17T01:43:44.507Z,17.05
2023-01-17T01:44:52.644Z,18.33
2023-01-17T01:45:58.274Z,19.48
2023-01-17T01:47:02.412Z,18.60
2023-01-17T01:48:24.498Z,19.77
2023-01-17T01:49:28.572Z,20.13
2023-01-17T01:50:34.254Z,19.88
2023-01-17T01:51:45.299Z,21.40
2023-01-17T01:52:52.758Z,20.83
2023-01-17T01:54:01.774Z,19.92
2023-01-17T01:55:13.470Z,19.90
2023-01-17T01:56:16.859Z,18.52
2023-01-17T01:57:24.586Z,18.92
2023-01-17T01:58:33.390Z,17.30
2023-01-17T01:59:41.784Z,17.10
2023-01-17T02:00:44.569Z,15.70
2023-01-17T02:01:51.811Z,17.60
2023-01-17T02:02:58.151Z,16.27
2023-01-17T02:04:02.501Z,16.30
2023-01-17T02:05:07.131Z,18.63
2023-01-17T02:06:27.923Z,16.45
2023-01-17T02:07:59.966Z,15.05
2023-01-17T02:09:07.738Z,13.70
2023-01-17T02:10:11.405Z,13.98
2023-01-17T02:11:16.409Z,14.07
2023-01-17T02:12:21.509Z,16.33
2023-01-17T02:13:24.569Z,14.82
2023-01-17T02:14:27.538Z,16.83
2023-01-17T02:15:40.055Z,16.60
2023-01-17T02:16:48.081Z,15.77
2023-01-17T02:18:11.722Z,16.67
2023-01-17T02:19:17.396Z,16.45
2023-01-17T02:20:58.380Z,15.57
2023-01-17T02:22:26.269Z,15.63
2023-01-17T02:24:06.457Z,15.23
2023-01-17T02:25:18.059Z,13.40
2023-01-17T02:26:40.004Z,15.40
2023-01-17T02:28:15.824Z,14.15
2023-01-17T02:29:36.845Z,16.23
2023-01-17T02:31:02.405Z,14.43
2023-01-17T02:32:30.239Z,14.05
2023-01-17T02:33:49.616Z,13.18
2023-01-17T02:35:02.081Z,14.05
2023-01-17T02:36:19.671Z,15.85
2023-01-17T02:37:57.000Z,15.50
2023-01-17T02:39:15.687Z,13.23
2023-01-17T02:40:31.501Z,15.20
2023-01-17T02:41:36.913Z,15.07
2023-01-17T02:42:45.865Z,15.23
2023-01-17T02:43:54.114Z,15.00
2023-01-17T02:44:56.868Z,16.30
2023-01-17T02:45:59.581Z,14.55
2023-01-17T02:47:02.544Z,16.60
2023-01-17T02:48:08.705Z,16.42
2023-01-17T02:49:12.043Z,16.10
2023-01-17T02:50:28.769Z,16.70
2023-01-17T02:53:21.643Z,15.70
2023-01-17T02:54:32.418Z,16.67
2023-01-17T02:55:52.854Z,15.35
2023-01-17T02:57:20.238Z,14.63
2023-01-17T02:58:40.104Z,14.68
2023-01-17T03:00:15.580Z,14.32
2023-01-17T03:01:53.839Z,13.63
2023-01-17T03:03:07.326Z,14.48
2023-01-17T03:04:20.282Z,13.10
2023-01-17T03:05:42.077Z,14.90
2023-01-17T03:07:05.309Z,13.35
2023-01-17T03:08:08.792Z,15.02
2023-01-17T03:09:15.056Z,14.43
2023-01-17T03:10:19.547Z,14.88
2023-01-17T03:11:25.107Z,15.13
2023-01-17T03:12:30.759Z,14.38
2023-01-17T03:13:33.451Z,14.05
2023-01-17T03:14:36.130Z,15.60
2023-01-17T03:15:39.764Z,16.58
2023-01-17T03:16:42.979Z,14.70
2023-01-17T03:17:49.820Z,14.38
2023-01-17T03:18:54.112Z,14.40
2023-01-17T03:20:59.715Z,12.85
2023-01-17T03:22:05.059Z,14.27
2023-01-17T03:23:07.765Z,15.70
2023-01-17T03:24:10.593Z,15.23
2023-01-17T03:25:14.155Z,14.90
2023-01-17T03:26:17.402Z,14.45
2023-01-17T03:27:20.307Z,15.20
2023-01-17T03:28:24.112Z,15.90
2023-01-17T03:29:27.171Z,15.77
2023-01-17T03:30:30.141Z,15.70
2023-01-17T03:31:36.037Z,15.40
2023-01-17T03:32:39.241Z,15.63
2023-01-17T03:33:49.218Z,16.23
2023-01-17T03:34:59.269Z,14.65
2023-01-17T03:36:01.998Z,14.65
2023-01-17T03:37:04.742Z,14.23
2023-01-17T03:38:07.827Z,13.98
2023-01-17T03:39:40.335Z,15.15
2023-01-17T03:40:50.108Z,14.10
2023-01-17T03:44:23.030Z,11.35
2023-01-17T03:45:29.440Z,13.10
2023-01-17T03:46:32.248Z,13.05
2023-01-17T03:47:36.485Z,13.75
2023-01-17T03:48:41.292Z,13.00
2023-01-17T03:49:44.214Z,13.82
2023-01-17T03:50:51.491Z,14.50
2023-01-17T03:51:56.461Z,14.15
2023-01-17T03:53:01.385Z,14.98
2023-01-17T03:54:04.487Z,15.25
2023-01-17T03:55:07.694Z,14.15
2023-01-17T03:56:10.293Z,14.23
2023-01-17T03:57:16.019Z,14.35
2023-01-17T03:58:18.938Z,14.50
2023-01-17T03:59:21.702Z,14.98
2023-01-17T04:00:26.028Z,14.52
2023-01-17T04:01:28.789Z,13.98
2023-01-17T04:02:35.035Z,14.63
2023-01-17T04:03:40.586Z,13.98
2023-01-17T04:04:47.531Z,14.10
2023-01-17T04:07:23.544Z,12.93
2023-01-17T04:08:26.377Z,13.73
2023-01-17T04:09:36.777Z,13.75
2023-01-17T04:10:49.632Z,13.55
2023-01-17T04:11:55.044Z,13.93
2023-01-17T04:13:00.414Z,16.23
2023-01-17T04:14:06.545Z,14.98
2023-01-17T04:15:14.650Z,15.73
2023-01-17T04:16:18.646Z,15.80
2023-01-17T04:17:36.930Z,16.70
2023-01-17T04:18:42.661Z,15.18
2023-01-17T04:19:46.590Z,15.85
2023-01-17T04:20:49.546Z,16.10
2023-01-17T04:21:52.189Z,15.27
2023-01-17T04:22:54.967Z,16.70
2023-01-17T04:24:01.909Z,14.07
2023-01-17T04:25:09.003Z,15.77
2023-01-17T04:26:15.271Z,15.10
2023-01-17T04:27:18.403Z,15.57
2023-01-17T04:28:25.392Z,15.32
2023-01-17T04:29:49.219Z,14.45
2023-01-17T04:30:59.777Z,13.75
2023-01-17T04:32:05.426Z,14.80
2023-01-17T04:33:29.012Z,14.68
2023-01-17T04:34:34.083Z,15.55
2023-01-17T04:35:40.640Z,14.38
2023-01-17T04:36:56.486Z,14.73
2023-01-17T04:38:06.451Z,15.07
2023-01-17T04:39:14.808Z,15.52
2023-01-17T04:40:27.009Z,14.90
2023-01-17T04:41:41.419Z,15.93
2023-01-17T04:42:55.341Z,16.48
2023-01-17T04:44:04.027Z,17.45
2023-01-17T04:45:07.645Z,20.40
2023-01-17T04:46:16.094Z,22.52
2023-01-17T04:47:23.109Z,23.95
2023-01-17T04:48:28.539Z,25.08
2023-01-17T04:49:34.002Z,24.13
2023-01-17T04:50:36.481Z,24.73
2023-01-17T04:51:39.014Z,24.25
2023-01-17T04:52:41.615Z,24.13
2023-01-17T04:53:44.182Z,24.35
2023-01-17T04:54:53.155Z,21.85
2023-01-17T04:55:58.485Z,21.30
2023-01-17T04:57:01.150Z,19.50
2023-01-17T04:58:04.190Z,19.25
2023-01-17T04:59:07.040Z,20.90
2023-01-17T05:00:12.559Z,18.88
2023-01-17T05:01:15.463Z,17.80
2023-01-17T05:02:18.195Z,20.27
2023-01-17T05:03:24.602Z,19.20
2023-01-17T05:04:30.433Z,20.80
2023-01-17T05:05:33.333Z,21.67
2023-01-17T05:06:36.136Z,22.50
2023-01-17T05:07:38.896Z,20.30
2023-01-17T05:08:45.425Z,21.20
2023-01-17T05:10:01.252Z,20.73
2023-01-17T05:11:12.367Z,24.23
2023-01-17T05:12:18.070Z,24.30
2023-01-17T05:13:23.256Z,23.52
2023-01-17T05:14:29.204Z,23.42
2023-01-17T05:15:32.486Z,26.90
2023-01-17T05:16:35.194Z,24.15
2023-01-17T05:17:42.088Z,25.67
2023-01-17T05:18:47.928Z,24.20
2023-01-17T05:19:53.408Z,23.38
2023-01-17T05:21:04.435Z,22.27
2023-01-17T05:22:16.011Z,22.45
2023-01-17T05:23:18.679Z,24.55
2023-01-17T05:24:21.579Z,25.67
2023-01-17T05:25:29.102Z,22.55
2023-01-17T05:26:33.486Z,23.38
2023-01-17T05:27:36.344Z,23.95
2023-01-17T05:28:39.362Z,22.40
2023-01-17T05:29:42.181Z,23.15
2023-01-17T05:30:44.892Z,25.33
2023-01-17T05:31:47.544Z,23.52
2023-01-17T05:32:54.467Z,21.98
2023-01-17T05:34:02.767Z,21.88
2023-01-17T05:35:06.318Z,21.20
2023-01-17T05:36:09.694Z,21.38
2023-01-17T05:37:12.322Z,21.38
2023-01-17T05:38:15.209Z,21.58
2023-01-17T05:39:18.005Z,21.63
2023-01-17T05:40:25.717Z,21.92
2023-01-17T05:41:28.414Z,20.98
2023-01-17T05:42:30.917Z,20.92
2023-01-17T05:43:33.653Z,21.10
2023-01-17T05:44:36.374Z,19.88
2023-01-17T05:45:39.160Z,20.25
2023-01-17T05:46:45.421Z,19.48
2023-01-17T05:47:51.805Z,19.70
2023-01-17T05:48:54.596Z,18.25
2023-01-17T05:49:57.222Z,20.08
2023-01-17T05:51:02.265Z,18.88
2023-01-17T05:52:04.998Z,14.95
2023-01-17T05:53:10.989Z,12.00
2023-01-17T05:54:16.741Z,10.60
2023-01-17T05:55:26.012Z,14.25
2023-01-17T05:56:31.043Z,12.35
2023-01-17T05:57:36.199Z,10.63
2023-01-17T05:58:40.361Z,10.18
2023-01-17T06:00:45.891Z,6.43
2023-01-17T06:01:48.696Z,7.72
2023-01-17T06:02:57.231Z,9.30
2023-01-17T06:04:00.032Z,6.40
2023-01-17T06:05:03.616Z,8.90
2023-01-17T06:06:07.420Z,8.07
2023-01-17T06:07:10.087Z,7.03
2023-01-17T06:08:12.675Z,7.55
2023-01-17T06:09:15.171Z,8.32
2023-01-17T06:10:22.473Z,9.32
2023-01-17T06:11:24.928Z,8.80
2023-01-17T06:12:27.459Z,10.40
2023-01-17T06:13:30.089Z,11.77
2023-01-17T06:14:32.558Z,11.60
2023-01-17T06:15:37.301Z,11.93
2023-01-17T06:16:39.973Z,11.10
2023-01-17T06:17:42.613Z,10.80
2023-01-17T06:18:45.303Z,10.35
2023-01-17T06:19:48.083Z,11.27
2023-01-17T06:20:57.339Z,10.50
2023-01-17T06:21:59.939Z,9.60
2023-01-17T06:23:04.662Z,10.50
2023-01-17T06:24:07.611Z,10.52
2023-01-17T06:25:10.545Z,11.23
2023-01-17T06:26:13.218Z,11.10
2023-01-17T06:27:15.823Z,10.57
2023-01-17T06:28:20.872Z,10.13
2023-01-17T06:29:26.373Z,9.18
2023-01-17T06:30:28.927Z,9.70
2023-01-17T06:31:31.391Z,11.95
2023-01-17T06:32:33.986Z,12.30
2023-01-17T06:33:36.920Z,10.00
2023-01-17T06:34:39.368Z,10.65
2023-01-17T06:35:49.817Z,10.88
2023-01-17T06:36:52.645Z,12.05
2023-01-17T06:37:55.971Z,11.65
2023-01-17T06:38:58.793Z,13.52
2023-01-17T06:40:01.640Z,13.55
2023-01-17T06:41:05.894Z,16.85
2023-01-17T06:43:11.014Z,23.02
2023-01-17T06:44:13.583Z,25.73
2023-01-17T06:45:16.386Z,26.70
2023-01-17T06:46:18.955Z,27.27
2023-01-17T06:47:21.573Z,23.92
2023-01-17T06:48:24.422Z,25.73
2023-01-17T06:49:29.968Z,25.42
2023-01-17T06:50:40.748Z,24.80
2023-01-17T06:51:43.789Z,22.67
2023-01-17T06:52:55.474Z,19.52
2023-01-17T06:53:58.294Z,17.50
2023-01-17T06:55:01.025Z,15.52
2023-01-17T06:56:03.725Z,16.00
2023-01-17T06:57:08.101Z,14.10
2023-01-17T06:58:10.916Z,14.45
2023-01-17T06:59:13.589Z,15.40
2023-01-17T07:00:16.794Z,15.38
2023-01-17T07:01:19.838Z,15.82
2023-01-17T07:02:23.376Z,15.90
2023-01-17T07:03:27.444Z,15.82
2023-01-17T07:05:34.920Z,12.35
2023-01-17T07:06:37.647Z,13.35
2023-01-17T07:07:40.334Z,13.07
2023-01-17T07:08:42.925Z,11.55
2023-01-17T07:09:45.479Z,10.73
2023-01-17T07:10:49.105Z,11.38
2023-01-17T07:11:52.910Z,10.43
2023-01-17T07:13:00.587Z,11.23
2023-01-17T07:14:03.069Z,11.70
2023-01-17T07:15:06.759Z,11.18
2023-01-17T07:16:09.600Z,10.38
2023-01-17T07:17:12.616Z,10.20
2023-01-17T07:18:20.716Z,10.85
2023-01-17T07:19:26.329Z,12.25
2023-01-17T07:22:45.410Z,9.93
2023-01-17T07:23:48.430Z,12.07
2023-01-17T07:24:50.907Z,11.07
2023-01-17T07:26:01.136Z,10.13
2023-01-17T07:27:04.265Z,9.63
2023-01-17T07:28:14.001Z,10.00
2023-01-17T07:29:17.229Z,11.90
2023-01-17T07:30:24.236Z,9.75
2023-01-17T07:31:28.481Z,12.02
2023-01-17T07:32:31.065Z,9.50
2023-01-17T07:33:34.640Z,10.93
2023-01-17T07:34:38.709Z,11.93
2023-01-17T07:35:45.397Z,12.27
2023-01-17T07:36:50.451Z,11.38
2023-01-17T07:37:54.792Z,11.52
2023-01-17T07:38:59.434Z,12.07
2023-01-17T07:40:03.248Z,12.27
2023-01-17T07:41:05.844Z,12.65
2023-01-17T07:42:09.662Z,12.00
2023-01-17T07:43:16.953Z,9.07
2023-01-17T07:44:19.593Z,11.63
2023-01-17T07:45:22.280Z,8.40
2023-01-17T07:46:24.858Z,9.52
2023-01-17T07:47:27.517Z,8.95
2023-01-17T07:48:31.074Z,10.30
2023-01-17T07:49:33.662Z,7.25
2023-01-17T07:50:36.726Z,10.55
2023-01-17T07:51:40.177Z,11.48
2023-01-17T07:52:45.312Z,10.65
2023-01-17T07:53:47.912Z,11.38
2023-01-17T07:54:50.694Z,11.63
2023-01-17T07:55:56.218Z,12.32
2023-01-17T07:57:00.056Z,9.65
2023-01-17T07:58:04.273Z,11.88
2023-01-17T08:00:10.163Z,12.00
2023-01-17T08:01:16.748Z,10.95
2023-01-17T08:02:28.297Z,11.48
2023-01-17T08:03:32.649Z,11.10
2023-01-17T08:04:35.572Z,11.57
2023-01-17T08:05:38.177Z,13.75
2023-01-17T08:06:44.111Z,13.63
2023-01-17T08:07:46.767Z,10.98
2023-01-17T08:08:49.619Z,11.57
2023-01-17T08:09:52.484Z,11.00
2023-01-17T08:10:55.175Z,10.85
2023-01-17T08:11:57.843Z,12.77
2023-01-17T08:13:00.515Z,11.13
2023-01-17T08:14:03.151Z,13.38
2023-01-17T08:15:06.848Z,13.18
2023-01-17T08:16:13.634Z,12.77
2023-01-17T08:17:17.409Z,11.45
2023-01-17T08:18:20.067Z,13.15
2023-01-17T08:19:22.720Z,13.95
2023-01-17T08:20:27.820Z,10.82
2023-01-17T08:21:30.921Z,9.40
2023-01-17T08:22:33.654Z,13.82
2023-01-17T08:23:36.364Z,12.77
2023-01-17T08:24:39.173Z,11.77
2023-01-17T08:25:41.812Z,15.13
2023-01-17T08:26:44.524Z,11.90
2023-01-17T08:27:47.426Z,13.45
2023-01-17T08:29:10.908Z,10.32
2023-01-17T08:30:16.867Z,12.07
2023-01-17T08:31:20.420Z,10.25
2023-01-17T08:32:30.303Z,8.30
2023-01-17T08:33:44.511Z,11.13
2023-01-17T08:34:52.824Z,11.52
2023-01-17T08:36:03.141Z,12.73
2023-01-17T08:37:06.036Z,10.80
2023-01-17T08:38:09.744Z,11.70
2023-01-17T08:39:23.383Z,9.57
2023-01-17T08:40:28.688Z,10.68
2023-01-17T08:41:36.837Z,9.50
2023-01-17T08:42:42.490Z,11.02
2023-01-17T08:43:49.742Z,11.10
2023-01-17T08:44:52.464Z,10.07
2023-01-17T08:45:56.331Z,10.15
2023-01-17T08:47:06.319Z,10.80
2023-01-17T08:51:36.797Z,11.13
2023-01-17T08:52:39.438Z,8.13
2023-01-17T08:53:48.846Z,9.25
2023-01-17T08:54:57.492Z,10.57
2023-01-17T08:56:01.972Z,9.10
2023-01-17T08:57:05.457Z,10.52
2023-01-17T08:58:08.754Z,9.65
2023-01-17T08:59:13.939Z,8.52
2023-01-17T09:00:17.016Z,8.45
2023-01-17T09:01:20.296Z,9.07
2023-01-17T09:02:25.018Z,8.73
2023-01-17T09:03:28.760Z,9.48
2023-01-17T09:04:31.415Z,8.73
2023-01-17T09:05:34.210Z,7.30
2023-01-17T09:06:42.282Z,7.53
2023-01-17T09:07:44.730Z,7.95
2023-01-17T09:08:49.174Z,6.07
2023-01-17T09:09:52.958Z,6.57
2023-01-17T09:10:55.644Z,6.90
2023-01-17T09:12:02.581Z,6.15
2023-01-17T09:13:07.763Z,6.25
2023-01-17T09:14:13.410Z,6.75
2023-01-17T09:15:20.430Z,6.18
2023-01-17T09:16:23.531Z,6.38
2023-01-17T09:17:27.605Z,5.55
2023-01-17T09:18:31.769Z,7.30
2023-01-17T09:19:37.789Z,6.78
2023-01-17T09:20:43.895Z,6.28
2023-01-17T09:21:49.792Z,5.28
2023-01-17T09:22:52.503Z,4.82
2023-01-17T09:23:56.324Z,5.45
2023-01-17T09:24:59.672Z,5.25
2023-01-17T09:26:02.178Z,6.25
2023-01-17T09:27:04.981Z,5.95
2023-01-17T09:28:12.131Z,5.45
2023-01-17T09:29:18.012Z,6.30
2023-01-17T09:30:20.784Z,7.15
2023-01-17T09:31:24.175Z,7.55
2023-01-17T09:32:26.902Z,7.43
2023-01-17T09:33:29.838Z,6.40
2023-01-17T09:34:32.393Z,6.35
2023-01-17T09:35:38.131Z,6.78
2023-01-17T09:36:44.005Z,7.25
2023-01-17T09:37:50.857Z,7.00
2023-01-17T09:38:58.858Z,7.20
2023-01-17T09:40:01.704Z,6.35
2023-01-17T09:41:29.486Z,7.40
2023-01-17T09:42:41.300Z,5.30
2023-01-17T09:44:25.193Z,5.75
2023-01-17T09:45:31.558Z,5.60
2023-01-17T09:46:42.435Z,5.00
2023-01-17T09:47:48.994Z,5.07
2023-01-17T09:49:02.205Z,5.20
2023-01-17T09:50:23.856Z,5.18
2023-01-17T09:51:30.649Z,5.05
2023-01-17T09:54:49.771Z,4.82
2023-01-17T09:57:38.577Z,4.72
2023-01-17T09:58:50.980Z,3.45
2023-01-17T10:00:03.570Z,4.60
2023-01-17T10:01:18.965Z,4.10
2023-01-17T10:02:48.927Z,6.00
2023-01-17T10:04:19.749Z,3.95
2023-01-17T10:05:59.290Z,3.63
2023-01-17T10:07:21.082Z,3.55
2023-01-17T10:08:42.065Z,4.53
2023-01-17T10:09:47.198Z,4.07
2023-01-17T10:11:09.119Z,4.18
2023-01-17T10:12:33.777Z,4.93
2023-01-17T10:14:19.049Z,4.00
2023-01-17T10:15:49.935Z,4.20
2023-01-17T10:17:13.983Z,4.60
2023-01-17T10:18:48.703Z,4.35
2023-01-17T10:19:58.190Z,4.05
2023-01-17T10:21:36.434Z,4.07
2023-01-17T10:23:04.217Z,4.00
2023-01-17T10:24:23.347Z,4.55
2023-01-17T10:25:42.936Z,4.38
2023-01-17T10:26:49.068Z,4.80
2023-01-17T10:28:08.764Z,5.45
2023-01-17T10:29:20.271Z,5.70
2023-01-17T10:30:32.152Z,5.05
2023-01-17T10:31:42.944Z,6.25
2023-01-17T10:32:49.023Z,4.70
2023-01-17T10:34:19.947Z,4.90
2023-01-17T10:35:35.248Z,5.45
2023-01-17T10:36:45.287Z,3.28
2023-01-17T10:37:57.001Z,4.22
2023-01-17T10:40:15.650Z,3.58
2023-01-17T10:42:13.164Z,2.53
2023-01-17T10:43:28.018Z,3.25
2023-01-17T10:44:48.471Z,4.50
2023-01-17T10:45:54.796Z,3.25
2023-01-17T10:47:12.081Z,3.95
2023-01-17T10:48:43.800Z,4.35
2023-01-17T10:49:57.871Z,3.72
2023-01-17T10:51:38.311Z,4.03
2023-01-17T10:56:50.426Z,3.35
2023-01-17T10:57:23.923Z,3.25
2023-01-17T10:58:36.840Z,4.00
2023-01-17T10:59:44.248Z,2.95
2023-01-17T11:00:50.354Z,3.80
2023-01-17T11:02:07.276Z,3.72
2023-01-17T11:03:22.313Z,3.38
2023-01-17T11:04:35.258Z,4.53
2023-01-17T11:05:38.187Z,5.35
2023-01-17T11:07:32.671Z,4.45
2023-01-17T11:09:11.970Z,4.80
2023-01-17T11:10:54.552Z,4.15
2023-01-17T11:11:57.443Z,3.60
2023-01-17T11:12:59.947Z,3.63
2023-01-17T11:14:16.034Z,4.43
2023-01-17T11:15:46.418Z,4.32
2023-01-17T11:17:14.887Z,4.15
2023-01-17T11:18:20.705Z,3.65
2023-01-17T11:19:36.479Z,4.60
2023-01-17T11:20:51.328Z,4.78
2023-01-17T11:21:59.692Z,4.45
2023-01-17T11:23:07.769Z,4.57
2023-01-17T11:24:19.950Z,4.55
2023-01-17T11:25:41.045Z,4.28
2023-01-17T11:27:05.846Z,4.55
2023-01-17T11:28:22.055Z,3.35
2023-01-17T11:30:27.709Z,2.70
2023-01-17T11:31:27.857Z,2.90
2023-01-17T11:32:33.982Z,2.78
2023-01-17T11:33:45.512Z,3.67
2023-01-17T11:35:37.466Z,3.55
2023-01-17T11:36:45.453Z,2.60
2023-01-17T11:41:41.501Z,3.63
2023-01-17T11:59:01.189Z,4.40
2023-01-17T12:05:44.204Z,6.03
2023-01-17T12:12:11.462Z,2.78
2023-01-17T12:32:19.746Z,2.70
2023-01-17T12:38:34.482Z,2.58
2023-01-17T12:40:50.683Z,2.50
2023-01-17T12:42:19.030Z,2.60
2023-01-17T12:43:41.818Z,2.92
2023-01-17T13:27:53.452Z,2.20
2023-01-17T13:29:12.157Z,2.30
2023-01-17T13:30:22.459Z,4.22
2023-01-17T13:31:48.727Z,3.75
2023-01-17T13:33:09.093Z,2.78
2023-01-17T14:18:44.367Z,16.63
2023-01-17T14:32:26.162Z,7.85
2023-01-17T14:33:43.921Z,6.10
2023-01-17T14:51:35.787Z,6.70
2023-01-17T15:09:27.565Z,7.07
2023-01-17T15:11:00.491Z,8.00
2023-01-17T15:12:10.454Z,7.80
2023-01-17T15:13:23.401Z,8.68
2023-01-17T15:14:34.667Z,8.25
2023-01-17T15:15:42.470Z,8.15
2023-01-17T15:16:47.347Z,7.88
2023-01-17T15:18:14.429Z,8.30
2023-01-17T15:19:17.106Z,8.90
2023-01-17T15:20:34.761Z,10.63
2023-01-17T15:21:55.920Z,11.27
2023-01-17T15:23:22.950Z,11.82
2023-01-17T15:24:34.846Z,12.63
2023-01-17T15:25:46.144Z,13.98
2023-01-17T15:26:54.846Z,14.13
2023-01-17T15:27:58.636Z,14.75
2023-01-17T15:29:07.314Z,16.85
2023-01-17T15:30:15.390Z,16.58
2023-01-17T15:31:20.177Z,17.23
2023-01-17T15:32:27.050Z,19.02
2023-01-17T15:33:36.835Z,23.48
2023-01-17T15:34:48.548Z,27.95
2023-01-17T15:36:15.595Z,30.40
2023-01-17T15:39:42.776Z,48.20
2023-01-17T15:44:08.833Z,44.58
2023-01-17T15:45:16.657Z,45.28
2023-01-17T15:46:26.072Z,55.22
2023-01-17T15:47:34.374Z,55.08
2023-01-17T15:48:45.997Z,60.35
2023-01-17T15:49:53.418Z,58.92
2023-01-17T15:50:59.456Z,57.60
2023-01-17T15:52:24.399Z,58.83
2023-01-17T15:53:34.317Z,54.90
2023-01-17T15:54:56.947Z,58.08
2023-01-17T15:59:03.215Z,53.42
2023-01-17T16:02:01.039Z,58.75
2023-01-17T16:03:20.495Z,67.53
2023-01-17T16:04:37.632Z,80.50
2023-01-17T16:05:56.130Z,74.53
2023-01-17T16:10:15.752Z,54.45
2023-01-17T16:11:19.169Z,48.85
2023-01-17T16:12:21.759Z,49.63
2023-01-17T16:13:24.376Z,52.33
2023-01-17T16:14:32.334Z,47.30
2023-01-17T16:15:42.444Z,43.90
2023-01-17T16:16:54.709Z,40.90
2023-01-17T16:18:02.438Z,49.15
2023-01-17T16:19:06.508Z,64.10
2023-01-17T16:20:58.683Z,61.05
2023-01-17T16:22:08.170Z,47.53
2023-01-17T16:23:13.409Z,31.35
2023-01-17T16:24:17.408Z,33.55
2023-01-17T16:25:25.781Z,31.77
2023-01-17T16:26:29.516Z,36.10
2023-01-17T16:27:37.601Z,38.60
2023-01-17T16:28:41.252Z,43.40
2023-01-17T16:29:48.472Z,51.53
2023-01-17T16:31:04.776Z,54.10
2023-01-17T16:32:25.353Z,69.93
2023-01-17T16:34:11.587Z,60.90
2023-01-17T16:35:41.278Z,56.58
2023-01-17T16:36:58.642Z,53.58
2023-01-17T16:38:21.355Z,52.40
2023-01-17T16:39:32.768Z,37.35
2023-01-17T16:43:35.550Z,26.50
2023-01-17T16:44:55.773Z,26.58
2023-01-17T16:46:00.166Z,30.23
2023-01-17T16:47:28.626Z,31.77
2023-01-17T16:48:34.680Z,24.85
2023-01-17T16:49:37.565Z,24.73
2023-01-17T16:50:51.147Z,22.77
2023-01-17T16:51:54.058Z,23.40
2023-01-17T16:53:25.631Z,25.75
2023-01-17T16:55:00.259Z,28.90
2023-01-17T16:56:17.374Z,32.20
2023-01-17T16:57:20.311Z,29.67
2023-01-17T16:58:29.192Z,29.17
2023-01-17T16:59:50.663Z,29.80
2023-01-17T17:01:00.494Z,27.60
2023-01-17T17:02:09.036Z,27.23
2023-01-17T17:03:33.003Z,28.58
2023-01-17T17:04:35.624Z,27.10
2023-01-17T17:05:40.544Z,26.55
2023-01-17T17:06:43.226Z,26.70
2023-01-17T17:07:51.480Z,25.70
2023-01-17T17:08:54.780Z,23.60
2023-01-17T17:09:57.957Z,23.35
2023-01-17T17:11:08.919Z,21.08
2023-01-17T17:12:11.630Z,21.45
2023-01-17T17:13:17.326Z,21.20
2023-01-17T17:14:24.280Z,26.95
2023-01-17T17:15:27.163Z,36.28
2023-01-17T17:16:32.838Z,35.38
2023-01-17T17:17:41.764Z,29.85
2023-01-17T17:18:46.549Z,25.88
2023-01-17T17:20:34.231Z,21.13
2023-01-17T17:21:34.309Z,20.35
2023-01-17T17:22:49.669Z,26.30
2023-01-17T17:25:26.727Z,22.95
2023-01-17T17:26:38.561Z,21.17
2023-01-17T17:27:41.674Z,22.83
2023-01-17T17:28:50.756Z,19.38
2023-01-17T17:29:55.186Z,21.13
2023-01-17T17:31:23.446Z,21.38
2023-01-17T17:32:29.889Z,23.05
2023-01-17T17:33:41.938Z,22.88
2023-01-17T17:34:50.407Z,25.13
2023-01-17T17:36:35.137Z,30.20
2023-01-17T17:37:46.327Z,24.35
2023-01-17T17:38:55.104Z,18.35
2023-01-17T17:40:02.899Z,16.20
2023-01-17T17:41:14.570Z,17.33
2023-01-17T17:42:30.440Z,18.20
2023-01-17T17:44:03.491Z,14.00
2023-01-17T17:47:32.857Z,12.13
2023-01-17T17:48:39.332Z,13.48
2023-01-17T17:50:17.028Z,12.38
2023-01-17T17:51:33.298Z,12.13
2023-01-17T17:52:36.240Z,13.43
2023-01-17T17:53:41.831Z,14.18
2023-01-17T17:54:50.365Z,13.95
2023-01-17T17:55:55.353Z,13.70
2023-01-17T17:56:58.348Z,13.80
2023-01-17T17:58:06.307Z,11.48
2023-01-17T17:59:12.252Z,11.70
2023-01-17T18:00:18.476Z,7.90
2023-01-17T18:01:26.049Z,9.57
2023-01-17T18:02:30.013Z,8.70
2023-01-17T18:03:34.402Z,9.20
2023-01-17T18:04:41.726Z,9.68
2023-01-17T18:05:47.352Z,10.48
2023-01-17T18:07:13.612Z,12.68
2023-01-17T18:08:35.315Z,11.70
2023-01-17T18:09:51.503Z,9.50
2023-01-17T18:11:01.826Z,9.00
2023-01-17T18:12:06.137Z,8.25
2023-01-17T18:13:09.291Z,8.00
2023-01-17T18:14:15.316Z,8.98
2023-01-17T18:15:21.076Z,8.90
2023-01-17T18:16:28.036Z,9.63
2023-01-17T18:17:33.124Z,8.20
2023-01-17T18:18:40.260Z,8.70
2023-01-17T18:19:53.870Z,8.57
2023-01-17T18:21:24.254Z,7.68
2023-01-17T18:22:57.675Z,9.02
2023-01-17T18:24:20.514Z,9.68
2023-01-17T18:32:15.234Z,12.35
2023-01-17T18:33:51.995Z,13.95
2023-01-17T18:34:58.119Z,15.48
2023-01-17T18:58:52.436Z,18.45
2023-01-17T19:00:24.428Z,18.40
2023-01-17T19:01:33.722Z,19.10
2023-01-17T19:05:12.935Z,17.38
2023-01-17T19:08:57.168Z,17.55
2023-01-17T19:10:27.238Z,17.70
2023-01-17T19:11:37.965Z,18.63
2023-01-17T19:12:57.868Z,22.55
2023-01-17T19:14:09.813Z,21.67
2023-01-17T19:15:36.472Z,20.60
2023-01-17T19:17:05.296Z,21.95
2023-01-17T19:18:33.225Z,18.95
2023-01-17T19:22:25.761Z,15.88
2023-01-17T19:27:30.839Z,15.15
2023-01-17T19:31:40.650Z,13.27
2023-01-17T19:32:46.875Z,16.23
2023-01-17T19:33:57.806Z,16.00
2023-01-17T19:36:48.429Z,14.88
2023-01-17T19:38:20.467Z,14.45
2023-01-17T19:39:26.814Z,13.68
2023-01-17T19:40:30.668Z,15.00
2023-01-17T19:42:20.779Z,15.30
2023-01-17T19:43:29.724Z,14.70
2023-01-17T19:44:42.979Z,15.05
2023-01-17T19:47:47.374Z,14.07
2023-01-17T19:48:55.212Z,14.90
2023-01-17T19:49:59.980Z,14.40
2023-01-17T19:51:12.978Z,14.73
2023-01-17T19:52:34.271Z,15.48
2023-01-17T19:53:48.872Z,15.50
2023-01-17T19:54:53.459Z,15.05
2023-01-17T19:56:00.875Z,15.55
2023-01-17T19:58:48.227Z,15.13
2023-01-17T20:06:40.040Z,14.05
2023-01-17T20:44:52.140Z,15.00
2023-01-17T20:47:37.539Z,14.82
2023-01-17T20:48:47.008Z,15.07